الصفحة الرئيسية
METAR-TAF:

METAR-TAF

مطار :

Guadalupe Mountains National Park

Pine Springs, تكساس, الولايات المتحدة

دائرة عرض: 31-49-52N, خط طول: 104-48-32W, ارتفاع: 1661 متر

مراقبة الطقس الحالي

تاريخ ووقت الإصدار 24 دقيقة قبل الساعة 17:51UTC
ريح 30 عقدة من الغرب/الجنوب الغربي تتزايد حتى 46 عقدة
درجة الحرارة 14°درجة مئوية
الرطوبة 44%
ضغط 1011 hPa
الرؤية: 16.1 كم
سماء صافية

METAR: KGDP 161751Z AUTO 24030G46KT 10SM CLR 14/02 A2985 RMK AO2 PK WND 23047/1734 SLP058 T01440017 10144 20094 57001

زمن: 12:15 (18:15 UTC)


TAF: مفقودة

أرصاد الطقس والتوقعات من أكثر من 4000 مطار (تقارير الطقس للمطار METAR والتنبؤ بالطقس بالمطارTAF).

المحطات المتاحة هي النقط الصفراء والحمراء على الخريطة.

حرك المؤشر فوق النقطة لمعرفة اسم المحطة.

ثم انقر لمعرفة أرصاد وتوقعات الطقس.

لتغيير الخارطة: اضغط على الأزرار الخضراء مع رمز الصليب الأسود للتكبير. على الزر الأخضر مع شرطة للتصغير، أو على الأسهم الخضراء للخرائط المجاورة.


METAR-TAF: